createdAt,value
2023-05-02T00:02:10.900Z,12.00
2023-05-02T00:04:38.999Z,11.96
2023-05-02T00:07:07.121Z,11.93
2023-05-02T00:09:35.417Z,11.91
2023-05-02T00:12:04.107Z,11.88
2023-05-02T00:14:31.908Z,11.84
2023-05-02T00:16:59.872Z,11.88
2023-05-02T00:19:29.185Z,11.89
2023-05-02T00:21:56.998Z,11.91
2023-05-02T00:24:24.892Z,11.91
2023-05-02T00:26:52.703Z,11.93
2023-05-02T00:29:20.996Z,11.94
2023-05-02T00:31:48.841Z,11.93
2023-05-02T00:34:16.826Z,11.94
2023-05-02T00:36:47.126Z,11.96
2023-05-02T00:39:14.957Z,11.99
2023-05-02T00:41:42.937Z,12.00
2023-05-02T00:44:10.810Z,11.99
2023-05-02T00:46:39.196Z,11.98
2023-05-02T00:49:07.103Z,11.97
2023-05-02T00:51:35.275Z,11.98
2023-05-02T00:54:05.413Z,11.95
2023-05-02T00:56:33.280Z,11.96
2023-05-02T00:59:01.519Z,11.99
2023-05-02T01:01:40.012Z,11.98
2023-05-02T01:04:23.056Z,12.03
2023-05-02T01:10:53.344Z,12.00
2023-05-02T01:13:24.416Z,12.00
2023-05-02T01:15:54.517Z,11.99
2023-05-02T01:18:27.003Z,11.99
2023-05-02T01:21:07.840Z,12.01
2023-05-02T01:23:45.808Z,11.98
2023-05-02T01:26:28.593Z,11.97
2023-05-02T01:29:00.735Z,11.96
2023-05-02T01:31:32.811Z,11.97
2023-05-02T01:34:03.788Z,11.93
2023-05-02T01:36:33.791Z,11.89
2023-05-02T01:39:03.899Z,11.84
2023-05-02T01:41:33.820Z,11.83
2023-05-02T01:44:04.764Z,11.84
2023-05-02T01:46:38.402Z,11.83
2023-05-02T01:49:12.381Z,11.79
2023-05-02T01:51:47.333Z,11.76
2023-05-02T01:54:17.631Z,11.74
2023-05-02T01:56:47.436Z,11.66
2023-05-02T01:59:20.025Z,11.68
2023-05-02T02:01:49.852Z,11.72
2023-05-02T02:04:19.497Z,11.75
2023-05-02T02:06:52.674Z,11.77
2023-05-02T02:09:21.169Z,11.73
2023-05-02T02:11:55.015Z,11.70
2023-05-02T02:14:29.339Z,11.76
2023-05-02T02:17:01.496Z,11.79
2023-05-02T02:19:31.922Z,11.72
2023-05-02T02:22:01.749Z,11.64
2023-05-02T02:24:31.646Z,11.59
2023-05-02T02:26:59.820Z,11.67
2023-05-02T02:29:29.721Z,11.59
2023-05-02T02:32:00.659Z,11.66
2023-05-02T02:34:29.544Z,11.67
2023-05-02T02:37:05.589Z,11.66
2023-05-02T02:39:49.965Z,11.70
2023-05-02T02:42:26.749Z,11.37
2023-05-02T02:45:10.002Z,11.72
2023-05-02T02:47:46.945Z,11.74
2023-05-02T02:50:21.866Z,11.73
2023-05-02T02:52:56.838Z,11.72
2023-05-02T02:55:38.920Z,11.69
2023-05-02T02:58:20.355Z,11.66
2023-05-02T03:00:56.132Z,11.64
2023-05-02T03:03:29.281Z,11.66
2023-05-02T03:05:59.083Z,11.65
2023-05-02T03:08:27.299Z,11.64
2023-05-02T03:10:55.782Z,11.61
2023-05-02T03:13:25.437Z,11.60
2023-05-02T03:16:21.576Z,11.55
2023-05-02T03:18:49.677Z,11.52
2023-05-02T03:21:17.759Z,11.41
2023-05-02T03:23:45.833Z,11.46
2023-05-02T03:26:14.004Z,11.43
2023-05-02T03:28:42.693Z,11.42
2023-05-02T03:31:13.364Z,11.35
2023-05-02T03:33:41.790Z,11.44
2023-05-02T03:36:10.114Z,11.39
2023-05-02T03:38:38.906Z,11.29
2023-05-02T03:41:07.186Z,11.45
2023-05-02T03:43:35.339Z,11.42
2023-05-02T03:46:08.438Z,11.51
2023-05-02T03:48:38.855Z,11.52
2023-05-02T03:51:10.043Z,11.52
2023-05-02T03:53:38.663Z,11.54
2023-05-02T03:56:08.241Z,11.60
2023-05-02T03:58:37.372Z,11.50
2023-05-02T04:01:05.434Z,11.59
2023-05-02T04:03:33.704Z,11.47
2023-05-02T04:06:03.304Z,11.63
2023-05-02T04:08:31.683Z,11.64
2023-05-02T04:10:59.779Z,11.61
2023-05-02T04:13:29.324Z,11.58
2023-05-02T04:15:57.865Z,11.67
2023-05-02T04:18:27.481Z,11.70
2023-05-02T04:20:55.783Z,11.75
2023-05-02T04:23:25.290Z,11.85
2023-05-02T04:25:54.452Z,11.96
2023-05-02T04:28:23.381Z,12.03
2023-05-02T04:30:51.920Z,12.05
2023-05-02T04:33:20.535Z,11.98
2023-05-02T04:35:48.613Z,12.02
2023-05-02T04:38:17.790Z,12.05
2023-05-02T04:40:47.757Z,12.15
2023-05-02T04:43:16.718Z,12.17
2023-05-02T04:45:45.205Z,12.24
2023-05-02T04:48:16.506Z,12.27
2023-05-02T04:50:47.083Z,12.20
2023-05-02T04:53:15.552Z,12.32
2023-05-02T04:55:44.573Z,12.33
2023-05-02T04:58:14.261Z,12.36
2023-05-02T05:00:44.028Z,12.48
2023-05-02T05:03:13.131Z,12.56
2023-05-02T05:05:41.448Z,12.47
2023-05-02T05:08:12.583Z,12.87
2023-05-02T05:10:43.370Z,13.11
2023-05-02T05:13:12.868Z,13.49
2023-05-02T05:15:45.050Z,13.99
2023-05-02T05:18:14.403Z,14.65
2023-05-02T05:20:42.867Z,15.70
2023-05-02T05:23:11.043Z,16.80
2023-05-02T05:25:41.071Z,17.92
2023-05-02T05:28:10.510Z,19.05
2023-05-02T05:30:39.157Z,19.82
2023-05-02T05:33:10.341Z,20.24
2023-05-02T05:35:39.189Z,20.63
2023-05-02T05:38:07.277Z,21.01
2023-05-02T05:40:35.480Z,21.84
2023-05-02T05:43:03.738Z,22.76
2023-05-02T05:45:31.935Z,23.72
2023-05-02T05:48:00.818Z,24.52
2023-05-02T05:50:31.882Z,25.38
2023-05-02T05:53:02.209Z,26.06
2023-05-02T05:55:30.483Z,26.01
2023-05-02T05:57:58.483Z,24.91
2023-05-02T06:00:27.635Z,24.78
2023-05-02T06:02:56.050Z,25.26
2023-05-02T06:05:24.501Z,25.99
2023-05-02T06:07:54.213Z,26.88
2023-05-02T06:10:22.590Z,27.29
2023-05-02T06:12:51.079Z,26.38
2023-05-02T06:15:19.831Z,25.42
2023-05-02T06:17:48.263Z,25.64
2023-05-02T06:20:18.831Z,26.08
2023-05-02T06:22:47.209Z,25.19
2023-05-02T06:25:17.798Z,23.74
2023-05-02T06:27:48.507Z,22.39
2023-05-02T06:30:16.771Z,21.51
2023-05-02T06:32:45.008Z,21.39
2023-05-02T06:35:15.213Z,21.68
2023-05-02T06:37:44.089Z,22.38
2023-05-02T06:40:13.759Z,23.84
2023-05-02T06:42:45.884Z,25.35
2023-05-02T06:45:14.048Z,26.49
2023-05-02T06:47:42.647Z,27.52
2023-05-02T06:50:12.796Z,28.08
2023-05-02T06:52:49.918Z,28.36
2023-05-02T06:55:18.365Z,28.23
2023-05-02T06:57:49.768Z,28.24
2023-05-02T07:00:19.524Z,28.05
2023-05-02T07:02:49.263Z,28.25
2023-05-02T07:05:18.740Z,28.64
2023-05-02T07:07:48.347Z,28.75
2023-05-02T07:10:16.707Z,28.98
2023-05-02T07:12:48.024Z,29.17
2023-05-02T07:15:16.796Z,29.49
2023-05-02T07:17:49.688Z,29.64
2023-05-02T07:20:17.916Z,29.96
2023-05-02T07:22:48.685Z,29.77
2023-05-02T07:25:17.396Z,29.24
2023-05-02T07:27:45.671Z,28.75
2023-05-02T07:30:15.481Z,28.50
2023-05-02T07:32:44.211Z,27.97
2023-05-02T07:35:12.958Z,27.73
2023-05-02T07:37:42.540Z,27.53
2023-05-02T07:40:12.640Z,26.69
2023-05-02T07:42:42.032Z,26.26
2023-05-02T07:45:14.624Z,26.01
2023-05-02T07:47:46.067Z,25.59
2023-05-02T07:50:14.599Z,25.28
2023-05-02T07:52:42.869Z,25.30
2023-05-02T07:55:13.402Z,25.08
2023-05-02T07:57:42.183Z,25.04
2023-05-02T08:00:11.856Z,25.21
2023-05-02T08:02:40.262Z,25.20
2023-05-02T08:05:11.325Z,25.52
2023-05-02T08:07:40.165Z,26.06
2023-05-02T08:10:11.542Z,26.02
2023-05-02T08:12:41.274Z,25.65
2023-05-02T08:15:13.752Z,25.43
2023-05-02T08:17:42.089Z,24.93
2023-05-02T08:20:12.732Z,24.63
2023-05-02T08:22:41.110Z,24.90
2023-05-02T08:25:11.334Z,25.23
2023-05-02T08:27:51.284Z,25.04
2023-05-02T08:30:22.327Z,24.50
2023-05-02T08:32:59.472Z,24.32
2023-05-02T08:35:30.480Z,23.89
2023-05-02T08:38:00.265Z,23.45
2023-05-02T08:40:40.811Z,23.01
2023-05-02T08:43:13.147Z,22.74
2023-05-02T08:45:43.976Z,22.58
2023-05-02T08:48:17.193Z,22.37
2023-05-02T08:50:48.660Z,22.06
2023-05-02T08:53:22.407Z,22.01
2023-05-02T08:55:51.329Z,22.04
2023-05-02T08:58:20.079Z,21.93
2023-05-02T09:00:55.026Z,21.97
2023-05-02T09:03:31.969Z,21.84
2023-05-02T09:06:13.028Z,21.60
2023-05-02T09:08:49.404Z,21.54
2023-05-02T09:11:18.925Z,21.73
2023-05-02T09:13:52.041Z,21.89
2023-05-02T09:16:23.594Z,22.08
2023-05-02T09:18:55.249Z,22.25
2023-05-02T09:21:26.904Z,22.51
2023-05-02T09:23:57.456Z,22.34
2023-05-02T09:26:33.937Z,22.02
2023-05-02T09:29:11.931Z,21.66
2023-05-02T09:34:14.473Z,21.22
2023-05-02T09:36:47.019Z,21.01
2023-05-02T09:39:19.158Z,20.86
2023-05-02T09:41:51.518Z,20.75
2023-05-02T09:44:21.285Z,20.76
2023-05-02T09:46:51.127Z,20.84
2023-05-02T09:49:22.045Z,20.94
2023-05-02T09:52:16.816Z,21.41
2023-05-02T09:54:48.669Z,22.27
2023-05-02T09:57:17.381Z,22.43
2023-05-02T10:00:00.913Z,22.16
2023-05-02T10:02:34.314Z,21.80
2023-05-02T10:05:05.476Z,21.35
2023-05-02T10:07:37.659Z,21.28
2023-05-02T10:10:10.250Z,20.96
2023-05-02T10:12:43.332Z,21.03
2023-05-02T10:15:18.150Z,20.96
2023-05-02T10:17:50.910Z,20.73
2023-05-02T10:20:25.152Z,20.47
2023-05-02T10:23:02.626Z,20.48
2023-05-02T10:25:33.180Z,21.05
2023-05-02T10:28:11.261Z,21.43
2023-05-02T10:30:41.788Z,21.48
2023-05-02T10:33:10.092Z,21.07
2023-05-02T10:35:49.916Z,20.60
2023-05-02T10:38:24.958Z,20.49
2023-05-02T10:41:00.374Z,20.34
2023-05-02T10:43:33.842Z,20.21
2023-05-02T10:46:05.113Z,20.03
2023-05-02T10:48:34.640Z,19.73
2023-05-02T10:51:04.302Z,19.63
2023-05-02T10:53:37.722Z,19.36
2023-05-02T10:56:23.125Z,19.15
2023-05-02T10:58:56.047Z,18.88
2023-05-02T11:01:40.294Z,18.60
2023-05-02T11:04:11.340Z,18.43
2023-05-02T11:07:18.082Z,18.08
2023-05-02T11:09:51.358Z,18.02
2023-05-02T11:12:45.400Z,17.83
2023-05-02T11:15:14.052Z,17.67
2023-05-02T11:18:02.086Z,17.52
2023-05-02T11:20:33.099Z,17.37
2023-05-02T11:23:27.961Z,17.14
2023-05-02T11:26:01.597Z,17.11
2023-05-02T11:28:48.126Z,17.09
2023-05-02T11:31:57.068Z,16.90
2023-05-02T11:34:27.003Z,16.63
2023-05-02T11:36:56.508Z,16.62
2023-05-02T11:39:24.926Z,16.66
2023-05-02T11:41:55.730Z,16.89
2023-05-02T11:44:24.815Z,17.05
2023-05-02T11:46:55.544Z,17.00
2023-05-02T11:49:24.817Z,17.20
2023-05-02T11:51:55.384Z,17.33
2023-05-02T11:54:24.789Z,17.66
2023-05-02T11:56:55.861Z,17.62
2023-05-02T11:59:26.869Z,17.45
2023-05-02T12:01:56.436Z,17.39
2023-05-02T12:04:26.836Z,17.38
2023-05-02T12:07:02.026Z,17.31
2023-05-02T12:09:31.593Z,17.12
2023-05-02T12:12:03.060Z,17.28
2023-05-02T12:14:35.734Z,17.57
2023-05-02T12:17:08.288Z,17.91
2023-05-02T12:19:40.358Z,18.19
2023-05-02T12:22:10.915Z,18.37
2023-05-02T12:24:39.746Z,18.46
2023-05-02T12:27:17.315Z,18.59
2023-05-02T12:29:47.702Z,18.79
2023-05-02T12:32:17.027Z,18.89
2023-05-02T12:34:45.449Z,18.94
2023-05-02T12:37:14.480Z,19.22
2023-05-02T12:39:47.620Z,19.19
2023-05-02T12:42:21.406Z,19.15
2023-05-02T12:44:52.824Z,19.12
2023-05-02T12:47:25.317Z,19.13
2023-05-02T12:49:55.080Z,19.15
2023-05-02T12:52:45.815Z,19.03
2023-05-02T12:55:18.086Z,18.79
2023-05-02T12:57:51.070Z,18.80
2023-05-02T13:00:22.581Z,18.55
2023-05-02T13:02:51.005Z,18.53
2023-05-02T13:05:23.173Z,18.44
2023-05-02T13:07:51.680Z,18.30
2023-05-02T13:10:24.900Z,18.11
2023-05-02T13:12:58.557Z,18.07
2023-05-02T13:15:27.864Z,17.89
2023-05-02T13:17:57.072Z,17.77
2023-05-02T13:20:28.668Z,17.88
2023-05-02T13:22:56.911Z,18.06
2023-05-02T13:25:29.590Z,18.07
2023-05-02T13:28:03.053Z,18.18
2023-05-02T13:30:47.248Z,18.51
2023-05-02T13:33:18.199Z,18.67
2023-05-02T13:35:46.788Z,18.93
2023-05-02T13:38:23.067Z,18.97
2023-05-02T13:40:54.242Z,19.17
2023-05-02T13:43:27.312Z,19.19
2023-05-02T13:45:58.035Z,19.42
2023-05-02T13:48:26.630Z,19.39
2023-05-02T13:51:02.646Z,19.24
2023-05-02T13:53:33.866Z,19.06
2023-05-02T13:56:08.635Z,18.90
2023-05-02T13:58:47.496Z,18.99
2023-05-02T14:01:18.855Z,18.66
2023-05-02T14:03:48.158Z,18.91
2023-05-02T14:06:22.719Z,18.98
2023-05-02T14:08:56.936Z,18.98
2023-05-02T14:11:26.147Z,18.91
2023-05-02T14:13:58.485Z,18.75
2023-05-02T14:16:27.365Z,18.69
2023-05-02T14:18:58.068Z,18.57
2023-05-02T14:21:27.587Z,18.78
2023-05-02T14:23:58.329Z,18.56
2023-05-02T14:26:26.597Z,18.56
2023-05-02T14:28:57.203Z,18.80
2023-05-02T14:31:28.914Z,18.86
2023-05-02T14:33:59.915Z,18.65
2023-05-02T14:36:32.041Z,18.74
2023-05-02T14:39:00.193Z,18.67
2023-05-02T14:41:32.439Z,18.51
2023-05-02T14:44:07.138Z,18.51
2023-05-02T14:46:38.536Z,18.33
2023-05-02T14:49:07.052Z,18.40
2023-05-02T14:51:35.326Z,18.42
2023-05-02T14:54:04.757Z,18.39
2023-05-02T14:56:33.938Z,18.39
2023-05-02T14:59:03.681Z,18.38
2023-05-02T15:01:34.387Z,18.37
2023-05-02T15:04:06.875Z,18.38
2023-05-02T15:06:36.741Z,18.34
2023-05-02T15:09:06.034Z,18.32
2023-05-02T15:11:34.950Z,18.31
2023-05-02T15:14:07.395Z,18.27
2023-05-02T15:16:37.345Z,18.17
2023-05-02T15:19:07.998Z,18.19
2023-05-02T15:21:39.986Z,18.25
2023-05-02T15:24:16.187Z,18.24
2023-05-02T15:26:49.998Z,18.25
2023-05-02T15:29:20.563Z,18.17
2023-05-02T15:31:50.373Z,18.16
2023-05-02T15:34:19.278Z,18.19
2023-05-02T15:36:49.500Z,18.04
2023-05-02T15:39:20.715Z,18.04
2023-05-02T15:41:48.794Z,18.01
2023-05-02T15:44:19.695Z,17.86
2023-05-02T15:46:48.239Z,17.85
2023-05-02T15:49:18.768Z,17.95
2023-05-02T15:51:47.194Z,17.93
2023-05-02T15:54:15.422Z,17.99
2023-05-02T15:56:48.733Z,17.94
2023-05-02T15:59:18.988Z,18.06
2023-05-02T16:01:52.961Z,18.05
2023-05-02T16:04:25.307Z,18.06
2023-05-02T16:06:59.982Z,18.08
2023-05-02T16:09:28.473Z,18.00
2023-05-02T16:11:56.947Z,18.08
2023-05-02T16:14:26.816Z,18.08
2023-05-02T16:17:00.520Z,18.01
2023-05-02T16:19:30.998Z,17.96
2023-05-02T16:22:02.496Z,18.02
2023-05-02T16:24:34.185Z,17.96
2023-05-02T16:27:03.753Z,18.05
2023-05-02T16:29:32.245Z,17.95
2023-05-02T16:32:02.206Z,18.04
2023-05-02T16:34:32.943Z,18.02
2023-05-02T16:37:06.831Z,17.97
2023-05-02T16:39:38.046Z,17.90
2023-05-02T16:42:08.359Z,17.94
2023-05-02T16:44:40.101Z,17.92
2023-05-02T16:47:11.217Z,17.92
2023-05-02T16:50:03.506Z,17.88
2023-05-02T16:52:32.435Z,17.85
2023-05-02T16:55:04.538Z,17.76
2023-05-02T16:57:33.108Z,17.77
2023-05-02T17:00:04.833Z,17.66
2023-05-02T17:02:36.910Z,17.72
2023-05-02T17:05:06.784Z,17.68
2023-05-02T17:07:34.837Z,17.60
2023-05-02T17:10:06.820Z,17.58
2023-05-02T17:12:39.207Z,17.52
2023-05-02T17:15:09.502Z,17.61
2023-05-02T17:17:38.986Z,17.50
2023-05-02T17:20:11.428Z,17.59
2023-05-02T17:22:41.732Z,17.52
2023-05-02T17:25:12.850Z,17.50
2023-05-02T17:27:42.136Z,17.38
2023-05-02T17:30:13.676Z,17.23
2023-05-02T17:32:45.457Z,17.39
2023-05-02T17:35:18.851Z,17.48
2023-05-02T17:38:02.094Z,17.30
2023-05-02T17:40:31.076Z,17.33
2023-05-02T17:42:59.737Z,17.24
2023-05-02T17:45:32.266Z,17.19
2023-05-02T17:48:13.737Z,17.18
2023-05-02T17:50:43.460Z,17.25
2023-05-02T17:53:11.814Z,17.07
2023-05-02T17:55:46.373Z,17.22
2023-05-02T17:58:14.864Z,17.24
2023-05-02T18:00:44.165Z,17.15
2023-05-02T18:03:14.054Z,17.16
2023-05-02T18:05:46.044Z,17.15
2023-05-02T18:08:17.524Z,17.12
2023-05-02T18:10:58.254Z,17.11
2023-05-02T18:13:39.905Z,17.01
2023-05-02T18:16:08.147Z,16.97
2023-05-02T18:18:39.068Z,17.03
2023-05-02T18:21:10.607Z,17.12
2023-05-02T18:23:40.435Z,17.12
2023-05-02T18:26:15.289Z,16.96
2023-05-02T18:28:48.681Z,17.13
2023-05-02T18:31:18.950Z,16.82
2023-05-02T18:33:49.765Z,17.11
2023-05-02T18:36:27.677Z,17.04
2023-05-02T18:39:00.102Z,17.03
2023-05-02T18:41:31.095Z,16.76
2023-05-02T18:44:01.010Z,16.77
2023-05-02T18:46:29.696Z,16.87
2023-05-02T18:49:00.919Z,16.85
2023-05-02T18:51:30.209Z,16.66
2023-05-02T18:53:59.131Z,16.78
2023-05-02T18:56:28.524Z,16.68
2023-05-02T18:58:56.970Z,16.54
2023-05-02T19:01:28.488Z,16.52
2023-05-02T19:03:57.284Z,16.66
2023-05-02T19:06:28.821Z,16.57
2023-05-02T19:08:56.870Z,16.63
2023-05-02T19:11:25.688Z,16.54
2023-05-02T19:13:59.933Z,16.63
2023-05-02T19:16:30.422Z,16.55
2023-05-02T19:18:59.341Z,16.42
2023-05-02T19:21:31.190Z,16.26
2023-05-02T19:24:03.122Z,16.28
2023-05-02T19:26:32.349Z,16.23
2023-05-02T19:29:00.893Z,16.03
2023-05-02T19:31:29.091Z,15.99
2023-05-02T19:33:57.296Z,15.67
2023-05-02T19:36:27.708Z,15.89
2023-05-02T19:38:58.419Z,15.78
2023-05-02T19:41:27.507Z,15.69
2023-05-02T19:43:59.002Z,15.60
2023-05-02T19:46:27.220Z,15.62
2023-05-02T19:48:55.808Z,15.54
2023-05-02T19:51:28.202Z,15.48
2023-05-02T19:54:00.305Z,15.48
2023-05-02T19:56:30.455Z,15.46
2023-05-02T19:59:01.415Z,15.45
2023-05-02T20:01:31.887Z,15.39
2023-05-02T20:04:00.577Z,15.30
2023-05-02T20:06:29.461Z,15.28
2023-05-02T20:09:03.952Z,15.25
2023-05-02T20:11:34.750Z,15.27
2023-05-02T20:14:03.256Z,15.20
2023-05-02T20:16:33.659Z,14.87
2023-05-02T20:19:02.586Z,15.06
2023-05-02T20:21:34.900Z,15.10
2023-05-02T20:24:05.697Z,15.10
2023-05-02T20:26:35.121Z,15.06
2023-05-02T20:29:06.200Z,15.04
2023-05-02T20:31:48.998Z,15.00
2023-05-02T20:34:18.006Z,14.84
2023-05-02T20:36:46.558Z,14.90
2023-05-02T20:39:21.118Z,14.74
2023-05-02T20:41:49.805Z,14.84
2023-05-02T20:44:22.588Z,14.82
2023-05-02T20:46:52.813Z,14.80
2023-05-02T20:49:24.185Z,14.77
2023-05-02T20:51:52.721Z,14.77
2023-05-02T20:54:22.254Z,14.76
2023-05-02T20:56:51.015Z,14.63
2023-05-02T20:59:19.769Z,14.51
2023-05-02T21:02:00.173Z,14.39
2023-05-02T21:04:29.721Z,14.17
2023-05-02T21:06:58.754Z,14.15
2023-05-02T21:09:31.442Z,14.19
2023-05-02T21:12:05.735Z,14.27
2023-05-02T21:14:37.236Z,14.05
2023-05-02T21:17:06.896Z,14.04
2023-05-02T21:19:34.962Z,14.10
2023-05-02T21:22:04.255Z,14.11
2023-05-02T21:24:34.303Z,13.94
2023-05-02T21:27:03.883Z,13.85
2023-05-02T21:29:32.981Z,13.94
2023-05-02T21:32:01.315Z,13.99
2023-05-02T21:34:31.938Z,13.96
2023-05-02T21:37:02.846Z,13.95
2023-05-02T21:39:33.478Z,13.95
2023-05-02T21:42:03.264Z,13.97
2023-05-02T21:44:32.994Z,13.98
2023-05-02T21:47:04.048Z,13.89
2023-05-02T21:49:32.505Z,13.59
2023-05-02T21:52:01.216Z,13.76
2023-05-02T21:54:32.206Z,13.88
2023-05-02T21:57:00.782Z,13.77
2023-05-02T21:59:31.605Z,13.87
2023-05-02T22:01:59.803Z,13.58
2023-05-02T22:04:38.154Z,13.74
2023-05-02T22:07:09.440Z,13.66
2023-05-02T22:09:40.377Z,13.74
2023-05-02T22:12:09.304Z,13.65
2023-05-02T22:14:45.359Z,13.63
2023-05-02T22:17:14.358Z,13.51
2023-05-02T22:19:42.709Z,13.44
2023-05-02T22:22:11.326Z,13.34
2023-05-02T22:24:41.948Z,13.39
2023-05-02T22:27:10.552Z,13.34
2023-05-02T22:29:40.524Z,13.27
2023-05-02T22:32:11.384Z,13.03
2023-05-02T22:34:39.624Z,12.93
2023-05-02T22:37:07.920Z,12.91
2023-05-02T22:39:36.594Z,12.85
2023-05-02T22:42:05.043Z,12.63
2023-05-02T22:44:37.906Z,12.63
2023-05-02T22:47:15.605Z,12.54
2023-05-02T22:49:44.990Z,12.50
2023-05-02T22:52:15.728Z,12.52
2023-05-02T22:54:46.466Z,12.51
2023-05-02T22:57:15.974Z,12.49
2023-05-02T22:59:43.961Z,12.26
2023-05-02T23:02:16.307Z,12.07
2023-05-02T23:04:44.476Z,12.12
2023-05-02T23:07:14.932Z,12.21
2023-05-02T23:09:44.438Z,12.25
2023-05-02T23:12:12.846Z,12.20
2023-05-02T23:14:43.390Z,11.95
2023-05-02T23:17:11.565Z,11.93
2023-05-02T23:19:44.784Z,11.72
2023-05-02T23:22:16.023Z,12.11
2023-05-02T23:24:46.457Z,12.04
2023-05-02T23:27:14.813Z,11.98
2023-05-02T23:29:42.902Z,12.05
2023-05-02T23:32:12.055Z,11.95
2023-05-02T23:34:41.838Z,12.14
2023-05-02T23:37:10.193Z,12.20
2023-05-02T23:39:38.488Z,12.25
2023-05-02T23:42:08.850Z,12.14
2023-05-02T23:44:37.497Z,12.21
2023-05-02T23:47:06.910Z,12.28
2023-05-02T23:49:37.812Z,12.12
2023-05-02T23:52:09.066Z,12.27
2023-05-02T23:54:37.536Z,12.28
2023-05-02T23:57:09.404Z,12.28
2023-05-02T23:59:37.654Z,12.30
